Rio Blanco — D5BO9 — position and weather

sailwx.info

Track history (hours):
 
Tides and Currents Weather Stations Pressure Air Temp Water Temp Dewpoint Dewpoint Depression Visibility Wind Speed Wind Dir Waves Ship Positions

Rio Blanco

Last reported at 2017-Aug-23 12:00 UTC. Time now 2017-Aug-23 13:45 UTC.
Position N 34°18' E 035°06'.

Length 286 m; draft 10.7 m.

Type: Ship (hazmat cat A). MMSI: 636092395.

Wind from 220 at 14 knots

Barometer 1008.8 mb
Air temperature 31.3 ° C
Visibility: greater than 10.8 NM
Dewpoint 20.0 ° C
Water temperature 30.0 ° C

Date/timePositionNaut miles runAvg speedWind from/ knotsBaromVisibWave heightAir tempDewpointWater temp
2017-Aug-23 12:00N 34°18' E 035°06'127 3.5 220 / 141008.810.8 31.320.030.0
2017-Aug-22 00:00N 33°00' E 033°06'21147.3 290 / 141010.210.8 26.220.328.0
2017-Aug-21 23:51N 33°10' E 033°28'1919.9
2017-Aug-21 22:55N 33°01' E 033°08'  
2017-Aug-19 17:30N 31°09' E 029°48'3 3.3
2017-Aug-19 16:29N 31°12' E 029°47'11 9.6
2017-Aug-19 15:18N 31°19' E 029°36'310.7
2017-Aug-19 14:59N 31°20' E 029°32'3913.1
2017-Aug-19 12:00N 31°30' E 028°48'16213.5 350 / 91012.510.8 29.020.428.0
2017-Aug-19 00:00N 32°24' E 025°48'15112.6 1015.910.8 25.420.428.0
2017-Aug-18 12:00N 33°18' E 023°00'7913.1 340 / 231011.910.8 29.421.426.0
2017-Aug-18 06:00N 33°42' E 021°30'7813.1 350 / 151012.910.8 26.716.327.0
2017-Aug-18 00:00N 34°06' E 020°00'15312.8 360 / 161013.310.8 25.822.327.0
2017-Aug-17 12:00N 35°00' E 017°06'1511.1 010 / 151014.910.8 29.723.228.0
2017-Aug-17 10:38N 35°08' E 016°51'212.8
2017-Aug-17 10:31N 35°09' E 016°49'612.7
2017-Aug-17 10:00N 35°11' E 016°41'1112.7
2017-Aug-17 09:09N 35°15' E 016°29'212.7
2017-Aug-17 08:59N 35°15' E 016°26'812.9
2017-Aug-17 08:21N 35°18' E 016°17'513.1
2017-Aug-17 08:00N 35°20' E 016°12'713.2
2017-Aug-17 07:30N 35°22' E 016°04'713.3
2017-Aug-17 07:00N 35°24' E 015°56'713.3
2017-Aug-17 06:30N 35°26' E 015°49'713.2
2017-Aug-17 06:00N 35°28' E 015°41'6417.9
2017-Aug-17 06:00N 35°24' E 015°36'714.0 360 / 131014.710.8 27.020.826.0
2017-Aug-17 05:30N 35°31' E 015°33'713.6
2017-Aug-17 05:01N 35°33' E 015°26'714.1
2017-Aug-17 04:30N 35°35' E 015°17'714.0
2017-Aug-17 04:00N 35°37' E 015°09'713.9
2017-Aug-17 03:30N 35°40' E 015°01'713.7
2017-Aug-17 03:00N 35°42' E 014°53'713.6
2017-Aug-17 02:30N 35°44' E 014°45'713.3
2017-Aug-17 02:00N 35°47' E 014°38'5 9.8
2017-Aug-17 01:30N 35°49' E 014°33'0 0.3
2017-Aug-17 01:00N 35°49' E 014°33'0 0.0
2017-Aug-17 00:25N 35°49' E 014°33'0 0.0
2017-Aug-16 23:58N 35°49' E 014°33'0 0.0
2017-Aug-16 23:28N 35°49' E 014°33'0 0.0
2017-Aug-16 22:58N 35°49' E 014°33'0 0.0
2017-Aug-16 22:28N 35°49' E 014°33'0 0.0
2017-Aug-16 21:58N 35°49' E 014°33'0 0.0
2017-Aug-16 21:25N 35°49' E 014°33'0 0.0
2017-Aug-16 20:58N 35°49' E 014°33'0 0.0
2017-Aug-16 20:25N 35°49' E 014°33'0 0.1
2017-Aug-16 19:58N 35°49' E 014°33'0 0.0
2017-Aug-16 19:28N 35°49' E 014°33'0 0.0
2017-Aug-16 18:58N 35°49' E 014°33'0 0.0
2017-Aug-16 18:28N 35°49' E 014°33'0 0.0
2017-Aug-16 17:58N 35°49' E 014°33'0 0.0
2017-Aug-16 17:28N 35°49' E 014°33'0 0.0
2017-Aug-16 16:58N 35°49' E 014°33'0 0.0
2017-Aug-16 16:28N 35°49' E 014°33'0 0.0
2017-Aug-16 15:58N 35°49' E 014°33'0 0.0
2017-Aug-16 15:28N 35°49' E 014°33'0 0.0
2017-Aug-16 14:58N 35°49' E 014°33'0 0.0
2017-Aug-16 14:22N 35°49' E 014°33'0 0.0
2017-Aug-16 13:58N 35°49' E 014°33'0 0.0
2017-Aug-16 13:28N 35°49' E 014°33'0 0.0
2017-Aug-16 12:58N 35°49' E 014°33'0 0.0
2017-Aug-16 12:25N 35°49' E 014°33'0 0.0
2017-Aug-16 11:58N 35°49' E 014°33'0 0.0
2017-Aug-16 11:28N 35°49' E 014°33'0 0.0
2017-Aug-16 10:55N 35°49' E 014°33'0 0.0
2017-Aug-16 10:28N 35°49' E 014°33'0 0.0
2017-Aug-16 09:58N 35°49' E 014°33'0 0.0
2017-Aug-16 09:28N 35°49' E 014°33'0 0.0
2017-Aug-16 08:58N 35°49' E 014°33'0 0.0
2017-Aug-16 08:28N 35°49' E 014°33'0 0.0
2017-Aug-16 07:58N 35°49' E 014°33'0 0.0
2017-Aug-16 07:28N 35°49' E 014°33'0 0.0
2017-Aug-16 06:55N 35°49' E 014°33'0 0.0
2017-Aug-16 06:30N 35°49' E 014°33'2 3.3
2017-Aug-16 06:00N 35°48' E 014°34'3 6.1
2017-Aug-16 05:30N 35°46' E 014°32'611.1
2017-Aug-16 05:00N 35°45' E 014°25'816.4
2017-Aug-16 04:30N 35°49' E 014°16'1019.4
2017-Aug-16 04:00N 35°54' E 014°06'1019.6
2017-Aug-16 03:30N 35°60' E 013°56'1019.7
2017-Aug-16 03:00N 36°05' E 013°46'1019.5
2017-Aug-16 02:30N 36°10' E 013°36'1019.2
2017-Aug-16 02:00N 36°16' E 013°26'918.8
2017-Aug-16 01:30N 36°21' E 013°16'918.7
2017-Aug-16 01:00N 36°26' E 013°06'918.7
2017-Aug-16 00:31N 36°31' E 012°56'918.7
2017-Aug-16 00:00N 36°36' E 012°47'9550.0
2017-Aug-16 00:00N 36°36' E 012°36'510.5 050 / 81017.110.8 24.320.427.0
2017-Aug-15 23:30N 36°41' E 012°37'918.4
2017-Aug-15 23:00N 36°46' E 012°27'918.7
2017-Aug-15 22:30N 36°51' E 012°17'918.9
2017-Aug-15 22:00N 36°56' E 012°07'918.8
2017-Aug-15 21:30N 37°01' E 011°57'918.9
2017-Aug-15 21:01N 37°06' E 011°47'1019.2
2017-Aug-15 20:30N 37°11' E 011°37'919.1
2017-Aug-15 20:00N 37°15' E 011°26'1019.0
2017-Aug-15 19:30N 37°20' E 011°15'919.1
2017-Aug-15 19:00N 37°24' E 011°05'1019.1
2017-Aug-15 18:30N 37°26' E 010°53'919.0
2017-Aug-15 18:00N 37°29' E 010°42'6475.8
2017-Aug-15 18:00N 37°24' E 010°36'817.3 340 / 181018.410.8 26.522.126.0
2017-Aug-15 17:30N 37°31' E 010°30'1019.8
2017-Aug-15 17:00N 37°33' E 010°18'1020.1
2017-Aug-15 16:30N 37°34' E 010°05'1121.5
2017-Aug-15 16:00N 37°36' E 009°52'1121.4
2017-Aug-15 15:30N 37°38' E 009°39'1121.3
2017-Aug-15 15:00N 37°39' E 009°25'1221.2
2017-Aug-15 14:27N 37°41' E 009°11'1121.2
2017-Aug-15 13:57N 37°43' E 008°57'1021.3
2017-Aug-15 13:30N 37°43' E 008°45'2720.9
2017-Aug-15 12:11N 37°40' E 008°11'420.9
2017-Aug-15 12:00N 37°39' E 008°06'6406.5
2017-Aug-15 12:00N 37°36' E 008°00'1616.7 090 / 181017.910.8 29.622.825.0
2017-Aug-15 11:01N 37°37' E 007°40'521.7
2017-Aug-15 10:46N 37°36' E 007°33'621.7
2017-Aug-15 10:30N 37°35' E 007°26'1121.9
2017-Aug-15 10:01N 37°34' E 007°12'1121.8
2017-Aug-15 09:30N 37°33' E 006°58'1121.9
2017-Aug-15 09:00N 37°32' E 006°44'1121.8
2017-Aug-15 08:30N 37°30' E 006°31'1121.8
2017-Aug-15 08:00N 37°29' E 006°17'1121.4
2017-Aug-15 07:30N 37°28' E 006°04'1121.3
2017-Aug-15 06:59N 37°27' E 005°50'1021.6
2017-Aug-15 06:30N 37°26' E 005°37'1121.7
2017-Aug-15 06:00N 37°24' E 005°23'4266.6
2017-Aug-15 06:00N 37°24' E 005°18'714.0 010 / 151016.0 5.4 27.223.727.0
2017-Aug-15 05:30N 37°23' E 005°10'1222.0
2017-Aug-15 04:59N 37°21' E 004°55'1021.9
2017-Aug-15 04:30N 37°20' E 004°42'1122.2
2017-Aug-15 04:01N 37°19' E 004°28'1122.2
2017-Aug-15 03:30N 37°18' E 004°14'1121.7
2017-Aug-15 03:00N 37°17' E 004°01'1121.3
2017-Aug-15 02:30N 37°15' E 003°47'1121.4
2017-Aug-15 02:00N 37°14' E 003°34'1421.8
2017-Aug-15 01:20N 37°13' E 003°16'721.9
2017-Aug-15 01:00N 37°12' E 003°07'1122.0
2017-Aug-15 00:30N 37°10' E 002°53'1121.7
2017-Aug-15 00:00N 37°09' E 002°40'8668.7
2017-Aug-15 00:00N 37°06' E 002°30'4 7.2 090 / 121014.410.8 27.420.226.0
2017-Aug-14 23:30N 37°08' E 002°26'1121.3
2017-Aug-14 23:00N 37°07' E 002°13'1021.0
2017-Aug-14 22:30N 37°06' E 002°00'1020.8
2017-Aug-14 22:00N 37°04' E 001°47'1220.7
2017-Aug-14 21:26N 37°03' E 001°32'920.5
2017-Aug-14 21:00N 37°02' E 001°21'1020.4
2017-Aug-14 20:30N 37°01' E 001°08'1021.0
2017-Aug-14 20:00N 36°59' E 000°56'1121.8
2017-Aug-14 19:30N 36°56' E 000°43'1121.7
2017-Aug-14 19:00N 36°53' E 000°30'1121.6
2017-Aug-14 18:30N 36°49' E 000°17'1121.4
2017-Aug-14 18:00N 36°46' E 000°04'5338.7
2017-Aug-14 18:00N 36°42' E 000°00'714.2 340 / 251012.3 5.4 27.422.425.0
2017-Aug-14 17:29N 36°43' W 000°09'11821.4
2017-Aug-14 12:00N 36°12' W 002°30'13222.0 050 / 311014.410.8 26.319.724.0
2017-Aug-14 06:00N 35°54' W 005°12'630.3 340 / 171013.710.8 22.018.620.0
2017-Aug-14 05:49N 35°60' W 005°12'722.0
2017-Aug-14 05:30N 35°59' W 005°20'1220.8
2017-Aug-14 04:56N 35°56' W 005°34'1719.0
2017-Aug-14 04:03N 35°55' W 005°55'119.8
2017-Aug-14 04:00N 35°55' W 005°56'6020.4
2017-Aug-14 01:03N 36°06' W 007°09'721.9
2017-Aug-14 00:43N 36°08' W 007°18'1520.9
2017-Aug-14 00:00N 36°12' W 007°36'427.4 010 / 181013.410.8 21.918.122.0
2017-Aug-13 23:50N 36°13' W 007°41'722.4
2017-Aug-13 23:30N 36°15' W 007°50'1322.1
2017-Aug-13 22:55N 36°19' W 008°06'922.1
2017-Aug-13 22:31N 36°21' W 008°16'1122.1
2017-Aug-13 22:01N 36°24' W 008°29'1121.8
2017-Aug-13 21:31N 36°27' W 008°42'1121.9
2017-Aug-13 21:00N 36°30' W 008°56'1122.0
2017-Aug-13 20:31N 36°33' W 009°09'1121.7
2017-Aug-13 20:01N 36°38' W 009°21'1122.9
2017-Aug-13 19:30N 36°46' W 009°30'1121.9
2017-Aug-13 19:00N 36°57' W 009°35'1122.1
2017-Aug-13 18:31N 37°07' W 009°38'1122.1
2017-Aug-13 18:00N 37°18' W 009°41'4255.8
2017-Aug-13 18:00N 37°18' W 009°36'1326.9 340 / 141014.510.8 22.615.219.0
2017-Aug-13 17:30N 37°29' W 009°45'1122.1
2017-Aug-13 17:00N 37°40' W 009°48'1121.9
2017-Aug-13 16:30N 37°51' W 009°51'1121.7
2017-Aug-13 16:00N 38°01' W 009°54'1121.9
2017-Aug-13 15:30N 38°12' W 009°57'1122.0
2017-Aug-13 15:00N 38°22' W 010°00'1122.0
2017-Aug-13 14:30N 38°33' W 010°03'1122.1
2017-Aug-13 14:00N 38°44' W 010°06'1121.8
2017-Aug-13 13:30N 38°55' W 010°06'1122.4
2017-Aug-13 13:00N 39°06' W 010°07'1122.4
2017-Aug-13 12:30N 39°17' W 010°06'1122.3
2017-Aug-13 12:00N 39°29' W 010°06'  
Track history (hours):
 
Tides and Currents Weather Stations Pressure Air Temp Water Temp Dewpoint Dewpoint Depression Visibility Wind Speed Wind Dir Waves Ship Positions

Rio Blanco

Last reported at 2017-Aug-23 12:00 UTC. Time now 2017-Aug-23 13:45 UTC.
Position N 34°18' E 035°06'.

Length 286 m; draft 10.7 m.

Type: Ship (hazmat cat A). MMSI: 636092395.

Wind from 220 at 14 knots

Barometer 1008.8 mb
Air temperature 31.3 ° C
Visibility: greater than 10.8 NM
Dewpoint 20.0 ° C
Water temperature 30.0 ° C

Date/timePositionNaut miles runAvg speedWind from/ knotsBaromVisibWave heightAir tempDewpointWater temp
2017-Aug-23 12:00N 34°18' E 035°06'127 3.5 220 / 141008.810.8 31.320.030.0
2017-Aug-22 00:00N 33°00' E 033°06'21147.3 290 / 141010.210.8 26.220.328.0
2017-Aug-21 23:51N 33°10' E 033°28'1919.9
2017-Aug-21 22:55N 33°01' E 033°08'  
2017-Aug-19 17:30N 31°09' E 029°48'3 3.3
2017-Aug-19 16:29N 31°12' E 029°47'11 9.6
2017-Aug-19 15:18N 31°19' E 029°36'310.7
2017-Aug-19 14:59N 31°20' E 029°32'3913.1
2017-Aug-19 12:00N 31°30' E 028°48'16213.5 350 / 91012.510.8 29.020.428.0
2017-Aug-19 00:00N 32°24' E 025°48'15112.6 1015.910.8 25.420.428.0
2017-Aug-18 12:00N 33°18' E 023°00'7913.1 340 / 231011.910.8 29.421.426.0
2017-Aug-18 06:00N 33°42' E 021°30'7813.1 350 / 151012.910.8 26.716.327.0
2017-Aug-18 00:00N 34°06' E 020°00'15312.8 360 / 161013.310.8 25.822.327.0
2017-Aug-17 12:00N 35°00' E 017°06'1511.1 010 / 151014.910.8 29.723.228.0
2017-Aug-17 10:38N 35°08' E 016°51'212.8
2017-Aug-17 10:31N 35°09' E 016°49'612.7
2017-Aug-17 10:00N 35°11' E 016°41'1112.7
2017-Aug-17 09:09N 35°15' E 016°29'212.7
2017-Aug-17 08:59N 35°15' E 016°26'812.9
2017-Aug-17 08:21N 35°18' E 016°17'513.1
2017-Aug-17 08:00N 35°20' E 016°12'713.2
2017-Aug-17 07:30N 35°22' E 016°04'713.3
2017-Aug-17 07:00N 35°24' E 015°56'713.3
2017-Aug-17 06:30N 35°26' E 015°49'713.2
2017-Aug-17 06:00N 35°28' E 015°41'6417.9
2017-Aug-17 06:00N 35°24' E 015°36'714.0 360 / 131014.710.8 27.020.826.0
2017-Aug-17 05:30N 35°31' E 015°33'713.6
2017-Aug-17 05:01N 35°33' E 015°26'714.1
2017-Aug-17 04:30N 35°35' E 015°17'714.0
2017-Aug-17 04:00N 35°37' E 015°09'713.9
2017-Aug-17 03:30N 35°40' E 015°01'713.7
2017-Aug-17 03:00N 35°42' E 014°53'713.6
2017-Aug-17 02:30N 35°44' E 014°45'713.3
2017-Aug-17 02:00N 35°47' E 014°38'5 9.8
2017-Aug-17 01:30N 35°49' E 014°33'0 0.3
2017-Aug-17 01:00N 35°49' E 014°33'0 0.0
2017-Aug-17 00:25N 35°49' E 014°33'0 0.0
2017-Aug-16 23:58N 35°49' E 014°33'0 0.0
2017-Aug-16 23:28N 35°49' E 014°33'0 0.0
2017-Aug-16 22:58N 35°49' E 014°33'0 0.0
2017-Aug-16 22:28N 35°49' E 014°33'0 0.0
2017-Aug-16 21:58N 35°49' E 014°33'0 0.0
2017-Aug-16 21:25N 35°49' E 014°33'0 0.0
2017-Aug-16 20:58N 35°49' E 014°33'0 0.0
2017-Aug-16 20:25N 35°49' E 014°33'0 0.1
2017-Aug-16 19:58N 35°49' E 014°33'0 0.0
2017-Aug-16 19:28N 35°49' E 014°33'0 0.0
2017-Aug-16 18:58N 35°49' E 014°33'0 0.0
2017-Aug-16 18:28N 35°49' E 014°33'0 0.0
2017-Aug-16 17:58N 35°49' E 014°33'0 0.0
2017-Aug-16 17:28N 35°49' E 014°33'0 0.0
2017-Aug-16 16:58N 35°49' E 014°33'0 0.0
2017-Aug-16 16:28N 35°49' E 014°33'0 0.0
2017-Aug-16 15:58N 35°49' E 014°33'0 0.0
2017-Aug-16 15:28N 35°49' E 014°33'0 0.0
2017-Aug-16 14:58N 35°49' E 014°33'0 0.0
2017-Aug-16 14:22N 35°49' E 014°33'0 0.0
2017-Aug-16 13:58N 35°49' E 014°33'0 0.0
2017-Aug-16 13:28N 35°49' E 014°33'0 0.0
2017-Aug-16 12:58N 35°49' E 014°33'0 0.0
2017-Aug-16 12:25N 35°49' E 014°33'0 0.0
2017-Aug-16 11:58N 35°49' E 014°33'0 0.0
2017-Aug-16 11:28N 35°49' E 014°33'0 0.0
2017-Aug-16 10:55N 35°49' E 014°33'0 0.0
2017-Aug-16 10:28N 35°49' E 014°33'0 0.0
2017-Aug-16 09:58N 35°49' E 014°33'0 0.0
2017-Aug-16 09:28N 35°49' E 014°33'0 0.0
2017-Aug-16 08:58N 35°49' E 014°33'0 0.0
2017-Aug-16 08:28N 35°49' E 014°33'0 0.0
2017-Aug-16 07:58N 35°49' E 014°33'0 0.0
2017-Aug-16 07:28N 35°49' E 014°33'0 0.0
2017-Aug-16 06:55N 35°49' E 014°33'0 0.0
2017-Aug-16 06:30N 35°49' E 014°33'2 3.3
2017-Aug-16 06:00N 35°48' E 014°34'3 6.1
2017-Aug-16 05:30N 35°46' E 014°32'611.1
2017-Aug-16 05:00N 35°45' E 014°25'816.4
2017-Aug-16 04:30N 35°49' E 014°16'1019.4
2017-Aug-16 04:00N 35°54' E 014°06'1019.6
2017-Aug-16 03:30N 35°60' E 013°56'1019.7
2017-Aug-16 03:00N 36°05' E 013°46'1019.5
2017-Aug-16 02:30N 36°10' E 013°36'1019.2
2017-Aug-16 02:00N 36°16' E 013°26'918.8
2017-Aug-16 01:30N 36°21' E 013°16'918.7
2017-Aug-16 01:00N 36°26' E 013°06'918.7
2017-Aug-16 00:31N 36°31' E 012°56'918.7
2017-Aug-16 00:00N 36°36' E 012°47'9550.0
2017-Aug-16 00:00N 36°36' E 012°36'510.5 050 / 81017.110.8 24.320.427.0
2017-Aug-15 23:30N 36°41' E 012°37'918.4
2017-Aug-15 23:00N 36°46' E 012°27'918.7
2017-Aug-15 22:30N 36°51' E 012°17'918.9
2017-Aug-15 22:00N 36°56' E 012°07'918.8
2017-Aug-15 21:30N 37°01' E 011°57'918.9
2017-Aug-15 21:01N 37°06' E 011°47'1019.2
2017-Aug-15 20:30N 37°11' E 011°37'919.1
2017-Aug-15 20:00N 37°15' E 011°26'1019.0
2017-Aug-15 19:30N 37°20' E 011°15'919.1
2017-Aug-15 19:00N 37°24' E 011°05'1019.1
2017-Aug-15 18:30N 37°26' E 010°53'919.0
2017-Aug-15 18:00N 37°29' E 010°42'6475.8
2017-Aug-15 18:00N 37°24' E 010°36'817.3 340 / 181018.410.8 26.522.126.0
2017-Aug-15 17:30N 37°31' E 010°30'1019.8
2017-Aug-15 17:00N 37°33' E 010°18'1020.1
2017-Aug-15 16:30N 37°34' E 010°05'1121.5
2017-Aug-15 16:00N 37°36' E 009°52'1121.4
2017-Aug-15 15:30N 37°38' E 009°39'1121.3
2017-Aug-15 15:00N 37°39' E 009°25'1221.2
2017-Aug-15 14:27N 37°41' E 009°11'1121.2
2017-Aug-15 13:57N 37°43' E 008°57'1021.3
2017-Aug-15 13:30N 37°43' E 008°45'2720.9
2017-Aug-15 12:11N 37°40' E 008°11'420.9
2017-Aug-15 12:00N 37°39' E 008°06'6406.5
2017-Aug-15 12:00N 37°36' E 008°00'1616.7 090 / 181017.910.8 29.622.825.0
2017-Aug-15 11:01N 37°37' E 007°40'521.7
2017-Aug-15 10:46N 37°36' E 007°33'621.7
2017-Aug-15 10:30N 37°35' E 007°26'1121.9
2017-Aug-15 10:01N 37°34' E 007°12'1121.8
2017-Aug-15 09:30N 37°33' E 006°58'1121.9
2017-Aug-15 09:00N 37°32' E 006°44'1121.8
2017-Aug-15 08:30N 37°30' E 006°31'1121.8
2017-Aug-15 08:00N 37°29' E 006°17'1121.4
2017-Aug-15 07:30N 37°28' E 006°04'1121.3
2017-Aug-15 06:59N 37°27' E 005°50'1021.6
2017-Aug-15 06:30N 37°26' E 005°37'1121.7
2017-Aug-15 06:00N 37°24' E 005°23'4266.6
2017-Aug-15 06:00N 37°24' E 005°18'714.0 010 / 151016.0 5.4 27.223.727.0
2017-Aug-15 05:30N 37°23' E 005°10'1222.0
2017-Aug-15 04:59N 37°21' E 004°55'1021.9
2017-Aug-15 04:30N 37°20' E 004°42'1122.2
2017-Aug-15 04:01N 37°19' E 004°28'1122.2
2017-Aug-15 03:30N 37°18' E 004°14'1121.7
2017-Aug-15 03:00N 37°17' E 004°01'1121.3
2017-Aug-15 02:30N 37°15' E 003°47'1121.4
2017-Aug-15 02:00N 37°14' E 003°34'1421.8
2017-Aug-15 01:20N 37°13' E 003°16'721.9
2017-Aug-15 01:00N 37°12' E 003°07'1122.0
2017-Aug-15 00:30N 37°10' E 002°53'1121.7
2017-Aug-15 00:00N 37°09' E 002°40'8668.7
2017-Aug-15 00:00N 37°06' E 002°30'4 7.2 090 / 121014.410.8 27.420.226.0
2017-Aug-14 23:30N 37°08' E 002°26'1121.3
2017-Aug-14 23:00N 37°07' E 002°13'1021.0
2017-Aug-14 22:30N 37°06' E 002°00'1020.8
2017-Aug-14 22:00N 37°04' E 001°47'1220.7
2017-Aug-14 21:26N 37°03' E 001°32'920.5
2017-Aug-14 21:00N 37°02' E 001°21'1020.4
2017-Aug-14 20:30N 37°01' E 001°08'1021.0
2017-Aug-14 20:00N 36°59' E 000°56'1121.8
2017-Aug-14 19:30N 36°56' E 000°43'1121.7
2017-Aug-14 19:00N 36°53' E 000°30'1121.6
2017-Aug-14 18:30N 36°49' E 000°17'1121.4
2017-Aug-14 18:00N 36°46' E 000°04'5338.7
2017-Aug-14 18:00N 36°42' E 000°00'714.2 340 / 251012.3 5.4 27.422.425.0
2017-Aug-14 17:29N 36°43' W 000°09'11821.4
2017-Aug-14 12:00N 36°12' W 002°30'13222.0 050 / 311014.410.8 26.319.724.0
2017-Aug-14 06:00N 35°54' W 005°12'630.3 340 / 171013.710.8 22.018.620.0
2017-Aug-14 05:49N 35°60' W 005°12'722.0
2017-Aug-14 05:30N 35°59' W 005°20'1220.8
2017-Aug-14 04:56N 35°56' W 005°34'1719.0
2017-Aug-14 04:03N 35°55' W 005°55'119.8
2017-Aug-14 04:00N 35°55' W 005°56'6020.4
2017-Aug-14 01:03N 36°06' W 007°09'721.9
2017-Aug-14 00:43N 36°08' W 007°18'1520.9
2017-Aug-14 00:00N 36°12' W 007°36'427.4 010 / 181013.410.8 21.918.122.0
2017-Aug-13 23:50N 36°13' W 007°41'722.4
2017-Aug-13 23:30N 36°15' W 007°50'1322.1
2017-Aug-13 22:55N 36°19' W 008°06'922.1
2017-Aug-13 22:31N 36°21' W 008°16'1122.1
2017-Aug-13 22:01N 36°24' W 008°29'1121.8
2017-Aug-13 21:31N 36°27' W 008°42'1121.9
2017-Aug-13 21:00N 36°30' W 008°56'1122.0
2017-Aug-13 20:31N 36°33' W 009°09'1121.7
2017-Aug-13 20:01N 36°38' W 009°21'1122.9
2017-Aug-13 19:30N 36°46' W 009°30'1121.9
2017-Aug-13 19:00N 36°57' W 009°35'1122.1
2017-Aug-13 18:31N 37°07' W 009°38'1122.1
2017-Aug-13 18:00N 37°18' W 009°41'4255.8
2017-Aug-13 18:00N 37°18' W 009°36'1326.9 340 / 141014.510.8 22.615.219.0
2017-Aug-13 17:30N 37°29' W 009°45'1122.1
2017-Aug-13 17:00N 37°40' W 009°48'1121.9
2017-Aug-13 16:30N 37°51' W 009°51'1121.7
2017-Aug-13 16:00N 38°01' W 009°54'1121.9
2017-Aug-13 15:30N 38°12' W 009°57'1122.0
2017-Aug-13 15:00N 38°22' W 010°00'1122.0
2017-Aug-13 14:30N 38°33' W 010°03'1122.1
2017-Aug-13 14:00N 38°44' W 010°06'1121.8
2017-Aug-13 13:30N 38°55' W 010°06'1122.4
2017-Aug-13 13:00N 39°06' W 010°07'1122.4
2017-Aug-13 12:30N 39°17' W 010°06'1122.3
2017-Aug-13 12:00N 39°29' W 010°06'  

Dump ship's entire track history